AUL294 USSS-UUEE
Flight info
| Callsign | AUL294 |
|---|---|
| Flight time | N/A |
| Altitude | 36000 |
| Route | UMTEK6G UMTEK M864 KERUN P164 IDMOR M864 IBROT T535 URIDU L158 DIMGI DIMGI3E |
| Aircraft | B738/M-SDE2E3FGHIRWXY/LB1 |
Departure
| Time | 2026-04-29 19:55 |
|---|---|
| Airport | Koltsovo Airport (USSS) |
Arrival
| Time | N/A |
|---|---|
| Airport | Sheremetyevo International Airport (UUEE) |
| Time | Latitude | Longitude | Altitude | Speed | Heading |
|---|---|---|---|---|---|
| 2026-04-29 19:06 | 56.74935 | 60.79938 | 774 ft | 0 kts | 0° |
| 2026-04-29 19:42 | 56.74933 | 60.79938 | 773 ft | 2 kts | 0° |
| 2026-04-29 19:43 | 56.74908 | 60.79938 | 773 ft | 4 kts | 0° |
| 2026-04-29 19:43 | 56.74885 | 60.79938 | 773 ft | 4 kts | 1° |
| 2026-04-29 19:43 | 56.74861 | 60.79926 | 773 ft | 4 kts | 46° |
| 2026-04-29 19:43 | 56.74847 | 60.79893 | 773 ft | 1 kts | 51° |
| 2026-04-29 19:44 | 56.74844 | 60.79887 | 773 ft | 0 kts | 51° |
| 2026-04-29 19:48 | 56.74851 | 60.79918 | 773 ft | 5 kts | 78° |
| 2026-04-29 19:49 | 56.74855 | 60.79993 | 773 ft | 7 kts | 89° |
| 2026-04-29 19:49 | 56.74854 | 60.80094 | 773 ft | 9 kts | 90° |
| 2026-04-29 19:49 | 56.74854 | 60.80215 | 773 ft | 9 kts | 90° |
| 2026-04-29 19:49 | 56.74854 | 60.80294 | 773 ft | 9 kts | 90° |
| 2026-04-29 19:50 | 56.74854 | 60.80487 | 774 ft | 17 kts | 90° |
| 2026-04-29 19:50 | 56.74854 | 60.80634 | 774 ft | 17 kts | 90° |
| 2026-04-29 19:50 | 56.74854 | 60.80849 | 774 ft | 17 kts | 90° |
| 2026-04-29 19:50 | 56.74861 | 60.81056 | 774 ft | 16 kts | 81° |
| 2026-04-29 19:51 | 56.74863 | 60.81255 | 774 ft | 15 kts | 90° |
| 2026-04-29 19:51 | 56.74863 | 60.81446 | 774 ft | 15 kts | 90° |
| 2026-04-29 19:51 | 56.74863 | 60.81630 | 774 ft | 14 kts | 90° |
| 2026-04-29 19:51 | 56.74863 | 60.81806 | 774 ft | 14 kts | 90° |
| 2026-04-29 19:52 | 56.74831 | 60.81961 | 774 ft | 13 kts | 116° |
| 2026-04-29 19:52 | 56.74791 | 60.82106 | 774 ft | 13 kts | 116° |
| 2026-04-29 19:52 | 56.74726 | 60.82199 | 774 ft | 12 kts | 173° |
| 2026-04-29 19:52 | 56.74643 | 60.82201 | 774 ft | 11 kts | 180° |
| 2026-04-29 19:53 | 56.74566 | 60.82202 | 774 ft | 11 kts | 180° |
| 2026-04-29 19:53 | 56.74491 | 60.82192 | 774 ft | 11 kts | 206° |
| 2026-04-29 19:53 | 56.74473 | 60.82079 | 774 ft | 0 kts | 271° |
| 2026-04-29 19:54 | 56.74474 | 60.81929 | 774 ft | 41 kts | 270° |
| 2026-04-29 19:55 | 56.74473 | 60.80973 | 774 ft | 108 kts | 270° |
| 2026-04-29 19:55 | 56.74477 | 60.79241 | 775 ft | 163 kts | 270° |
| 2026-04-29 19:55 | 56.74478 | 60.76991 | 1157 ft | 183 kts | 270° |
| 2026-04-29 19:55 | 56.74485 | 60.74629 | 1930 ft | 187 kts | 270° |
| 2026-04-29 19:56 | 56.74497 | 60.72120 | 2341 ft | 211 kts | 270° |
| 2026-04-29 19:56 | 56.74508 | 60.69302 | 2665 ft | 230 kts | 269° |
| 2026-04-29 19:56 | 56.74518 | 60.66377 | 3372 ft | 230 kts | 269° |
| 2026-04-29 19:56 | 56.74571 | 60.63466 | 4062 ft | 233 kts | 277° |
| 2026-04-29 19:57 | 56.75222 | 60.60744 | 4737 ft | 238 kts | 298° |
| 2026-04-29 19:57 | 56.75696 | 60.58953 | 5149 ft | 237 kts | 281° |
| 2026-04-29 19:57 | 56.75950 | 60.54984 | 6048 ft | 236 kts | 273° |
| 2026-04-29 19:57 | 56.76128 | 60.51997 | 6700 ft | 238 kts | 274° |
| 2026-04-29 19:58 | 56.76324 | 60.48990 | 7305 ft | 240 kts | 274° |
| 2026-04-29 19:58 | 56.76530 | 60.45941 | 7879 ft | 244 kts | 274° |
| 2026-04-29 19:58 | 56.76745 | 60.42860 | 8506 ft | 246 kts | 274° |
| 2026-04-29 19:58 | 56.76964 | 60.39757 | 9101 ft | 248 kts | 274° |
| 2026-04-29 19:59 | 56.77185 | 60.36621 | 9652 ft | 251 kts | 274° |
| 2026-04-29 19:59 | 56.77412 | 60.33466 | 10265 ft | 251 kts | 273° |
| 2026-04-29 19:59 | 56.77643 | 60.30283 | 10906 ft | 250 kts | 272° |
| 2026-04-29 19:59 | 56.77874 | 60.27123 | 11500 ft | 251 kts | 272° |
| 2026-04-29 20:00 | 56.78103 | 60.23955 | 12077 ft | 252 kts | 272° |
| 2026-04-29 20:00 | 56.78332 | 60.20753 | 12496 ft | 261 kts | 271° |
| 2026-04-29 20:00 | 56.78569 | 60.17330 | 12681 ft | 283 kts | 271° |
| 2026-04-29 20:00 | 56.78822 | 60.13713 | 12857 ft | 304 kts | 271° |
| 2026-04-29 20:01 | 56.79068 | 60.09857 | 13010 ft | 323 kts | 271° |
| 2026-04-29 20:01 | 56.79319 | 60.05658 | 13195 ft | 341 kts | 271° |
| 2026-04-29 20:01 | 56.79579 | 60.01276 | 13646 ft | 349 kts | 271° |
| 2026-04-29 20:01 | 56.79846 | 59.96862 | 14284 ft | 351 kts | 271° |
| 2026-04-29 20:02 | 56.80115 | 59.92421 | 14958 ft | 352 kts | 271° |
| 2026-04-29 20:02 | 56.80384 | 59.87972 | 15587 ft | 354 kts | 271° |
| 2026-04-29 20:02 | 56.80652 | 59.83500 | 16209 ft | 356 kts | 271° |
| 2026-04-29 20:03 | 56.81189 | 59.74477 | 17366 ft | 360 kts | 270° |
| 2026-04-29 20:03 | 56.81456 | 59.69923 | 17909 ft | 362 kts | 270° |
| 2026-04-29 20:03 | 56.81721 | 59.65442 | 18947 ft | 349 kts | 270° |
| 2026-04-29 20:03 | 56.81987 | 59.61107 | 19989 ft | 338 kts | 270° |
| 2026-04-29 20:04 | 56.82242 | 59.56836 | 20588 ft | 340 kts | 270° |
| 2026-04-29 20:04 | 56.82486 | 59.52522 | 21061 ft | 343 kts | 269° |
| 2026-04-29 20:04 | 56.82727 | 59.48185 | 21574 ft | 345 kts | 269° |
| 2026-04-29 20:04 | 56.82970 | 59.43803 | 22089 ft | 347 kts | 269° |
| 2026-04-29 20:05 | 56.83213 | 59.39404 | 22556 ft | 349 kts | 269° |
| 2026-04-29 20:05 | 56.83457 | 59.34980 | 23043 ft | 351 kts | 269° |
| 2026-04-29 20:05 | 56.83702 | 59.30525 | 23496 ft | 353 kts | 269° |
| 2026-04-29 20:05 | 56.83946 | 59.26063 | 23941 ft | 355 kts | 269° |
| 2026-04-29 20:06 | 56.84191 | 59.21562 | 24389 ft | 357 kts | 269° |
| 2026-04-29 20:06 | 56.84437 | 59.17044 | 24795 ft | 359 kts | 269° |
| 2026-04-29 20:06 | 56.84682 | 59.12495 | 25208 ft | 360 kts | 269° |
| 2026-04-29 20:06 | 56.84926 | 59.07931 | 25652 ft | 361 kts | 268° |
| 2026-04-29 20:07 | 56.85110 | 59.03367 | 26043 ft | 360 kts | 266° |
| 2026-04-29 20:07 | 56.85213 | 58.98792 | 26409 ft | 361 kts | 265° |
| 2026-04-29 20:07 | 56.85289 | 58.94198 | 26777 ft | 362 kts | 265° |
| 2026-04-29 20:07 | 56.85358 | 58.89574 | 27085 ft | 365 kts | 265° |
| 2026-04-29 20:08 | 56.85427 | 58.84934 | 27433 ft | 366 kts | 265° |
| 2026-04-29 20:08 | 56.85474 | 58.81851 | 27667 ft | 367 kts | 265° |
| 2026-04-29 20:08 | 56.85573 | 58.75603 | 28092 ft | 369 kts | 265° |
| 2026-04-29 20:08 | 56.85648 | 58.70903 | 28421 ft | 370 kts | 265° |
| 2026-04-29 20:09 | 56.85724 | 58.66198 | 28709 ft | 372 kts | 265° |
| 2026-04-29 20:09 | 56.85799 | 58.61456 | 29003 ft | 373 kts | 265° |
| 2026-04-29 20:09 | 56.85874 | 58.56702 | 29308 ft | 374 kts | 265° |
| 2026-04-29 20:09 | 56.85948 | 58.51934 | 29563 ft | 376 kts | 265° |
| 2026-04-29 20:10 | 56.86019 | 58.47174 | 29930 ft | 375 kts | 265° |
| 2026-04-29 20:10 | 56.86091 | 58.42427 | 30341 ft | 372 kts | 264° |
| 2026-04-29 20:10 | 56.86160 | 58.37688 | 30657 ft | 373 kts | 264° |
| 2026-04-29 20:10 | 56.86225 | 58.32950 | 30864 ft | 375 kts | 264° |
| 2026-04-29 20:11 | 56.86289 | 58.28160 | 31087 ft | 377 kts | 264° |
| 2026-04-29 20:11 | 56.86352 | 58.23372 | 31364 ft | 377 kts | 264° |
| 2026-04-29 20:11 | 56.86413 | 58.18579 | 31662 ft | 377 kts | 264° |
| 2026-04-29 20:11 | 56.86473 | 58.13783 | 31919 ft | 378 kts | 264° |
| 2026-04-29 20:12 | 56.86531 | 58.08981 | 32143 ft | 379 kts | 265° |
| 2026-04-29 20:12 | 56.86585 | 58.04150 | 32366 ft | 380 kts | 264° |
| 2026-04-29 20:12 | 56.86639 | 57.99297 | 32598 ft | 381 kts | 264° |
| 2026-04-29 20:12 | 56.86692 | 57.94451 | 32849 ft | 382 kts | 265° |
| 2026-04-29 20:13 | 56.86743 | 57.89581 | 32982 ft | 385 kts | 265° |
| 2026-04-29 20:13 | 56.86776 | 57.86330 | 33080 ft | 386 kts | 265° |
| 2026-04-29 20:13 | 56.86840 | 57.79764 | 33423 ft | 386 kts | 265° |
| 2026-04-29 20:13 | 56.86887 | 57.74869 | 33669 ft | 386 kts | 265° |
| 2026-04-29 20:14 | 56.86932 | 57.69954 | 33830 ft | 388 kts | 265° |
| 2026-04-29 20:14 | 56.86973 | 57.65100 | 33998 ft | 389 kts | 265° |
| 2026-04-29 20:14 | 56.87014 | 57.60120 | 34259 ft | 389 kts | 265° |
| 2026-04-29 20:14 | 56.87053 | 57.55117 | 34472 ft | 389 kts | 265° |
| 2026-04-29 20:15 | 56.87088 | 57.50155 | 34615 ft | 391 kts | 265° |
| 2026-04-29 20:15 | 56.87122 | 57.45246 | 34760 ft | 393 kts | 265° |
| 2026-04-29 20:15 | 56.87154 | 57.40246 | 34928 ft | 394 kts | 265° |
| 2026-04-29 20:15 | 56.87185 | 57.35230 | 35083 ft | 395 kts | 265° |
| 2026-04-29 20:16 | 56.87214 | 57.30201 | 35264 ft | 396 kts | 265° |
| 2026-04-29 20:16 | 56.87241 | 57.25090 | 35377 ft | 398 kts | 265° |
| 2026-04-29 20:16 | 56.87266 | 57.20009 | 35552 ft | 398 kts | 265° |
| 2026-04-29 20:16 | 56.87289 | 57.15021 | 35704 ft | 399 kts | 265° |
| 2026-04-29 20:17 | 56.87310 | 57.09941 | 35851 ft | 400 kts | 265° |
| 2026-04-29 20:17 | 56.87329 | 57.04852 | 36025 ft | 400 kts | 265° |
| 2026-04-29 20:17 | 56.87362 | 56.94622 | 36105 ft | 405 kts | 265° |
| 2026-04-29 20:18 | 56.87386 | 56.84247 | 36114 ft | 411 kts | 265° |
| 2026-04-29 20:18 | 56.87400 | 56.73732 | 36121 ft | 415 kts | 265° |
| 2026-04-29 20:19 | 56.87408 | 56.63134 | 36113 ft | 417 kts | 265° |
| 2026-04-29 20:19 | 56.87408 | 56.52537 | 36109 ft | 417 kts | 265° |
| 2026-04-29 20:20 | 56.87406 | 56.41926 | 36108 ft | 418 kts | 266° |
| 2026-04-29 20:20 | 56.87498 | 56.31294 | 36109 ft | 418 kts | 266° |
| 2026-04-29 20:21 | 56.87601 | 56.20693 | 36110 ft | 417 kts | 266° |
| 2026-04-29 20:21 | 56.87683 | 56.10100 | 36101 ft | 416 kts | 266° |
| 2026-04-29 20:22 | 56.87752 | 55.99541 | 36099 ft | 415 kts | 266° |
| 2026-04-29 20:22 | 56.87804 | 55.89000 | 36092 ft | 413 kts | 265° |
| 2026-04-29 20:23 | 56.87727 | 55.80283 | 36093 ft | 412 kts | 264° |
| 2026-04-29 20:23 | 56.87547 | 55.68065 | 36095 ft | 411 kts | 264° |
| 2026-04-29 20:24 | 56.87396 | 55.57602 | 36089 ft | 411 kts | 264° |
| 2026-04-29 20:24 | 56.87247 | 55.47160 | 36097 ft | 411 kts | 264° |
| 2026-04-29 20:25 | 56.87092 | 55.36681 | 36094 ft | 412 kts | 264° |
| 2026-04-29 20:25 | 56.86928 | 55.26201 | 36089 ft | 413 kts | 264° |
| 2026-04-29 20:26 | 56.86786 | 55.17468 | 36100 ft | 414 kts | 264° |
| 2026-04-29 20:26 | 56.86606 | 55.06927 | 36093 ft | 416 kts | 264° |
| 2026-04-29 20:27 | 56.86448 | 54.98142 | 36096 ft | 417 kts | 264° |
| 2026-04-29 20:27 | 56.86215 | 54.85741 | 36094 ft | 418 kts | 264° |
| 2026-04-29 20:28 | 56.86006 | 54.75044 | 36091 ft | 419 kts | 264° |
| 2026-04-29 20:28 | 56.85789 | 54.64404 | 36093 ft | 419 kts | 264° |
| 2026-04-29 20:29 | 56.85598 | 54.53751 | 36091 ft | 420 kts | 265° |
| 2026-04-29 20:29 | 56.85481 | 54.43084 | 36090 ft | 419 kts | 265° |
| 2026-04-29 20:30 | 56.85353 | 54.32444 | 36097 ft | 418 kts | 265° |
| 2026-04-29 20:30 | 56.85205 | 54.21833 | 36098 ft | 417 kts | 264° |
| 2026-04-29 20:31 | 56.85008 | 54.11258 | 36098 ft | 415 kts | 264° |
| 2026-04-29 20:31 | 56.84773 | 54.00719 | 36103 ft | 414 kts | 264° |
| 2026-04-29 20:32 | 56.84526 | 53.90216 | 36097 ft | 414 kts | 264° |
| 2026-04-29 20:32 | 56.84273 | 53.79718 | 36102 ft | 414 kts | 264° |
| 2026-04-29 20:33 | 56.84014 | 53.69213 | 36101 ft | 414 kts | 264° |
| 2026-04-29 20:33 | 56.83748 | 53.58690 | 36105 ft | 415 kts | 264° |
| 2026-04-29 20:34 | 56.83472 | 53.48135 | 36101 ft | 416 kts | 264° |
| 2026-04-29 20:34 | 56.83317 | 53.37537 | 36107 ft | 418 kts | 266° |
| 2026-04-29 20:35 | 56.83356 | 53.26893 | 36105 ft | 419 kts | 266° |
| 2026-04-29 20:35 | 56.83368 | 53.16241 | 36101 ft | 420 kts | 266° |
| 2026-04-29 20:36 | 56.83344 | 53.05558 | 36105 ft | 421 kts | 266° |
| 2026-04-29 20:36 | 56.83306 | 52.94854 | 36099 ft | 422 kts | 266° |
| 2026-04-29 20:37 | 56.83253 | 52.84139 | 36101 ft | 422 kts | 266° |
| 2026-04-29 20:37 | 56.83184 | 52.73414 | 36111 ft | 423 kts | 265° |
| 2026-04-29 20:38 | 56.83107 | 52.62663 | 36106 ft | 423 kts | 265° |
| 2026-04-29 20:38 | 56.83023 | 52.51979 | 36109 ft | 423 kts | 265° |
| 2026-04-29 20:39 | 56.82930 | 52.41233 | 36118 ft | 423 kts | 265° |
| 2026-04-29 20:39 | 56.82828 | 52.30484 | 36110 ft | 423 kts | 265° |
| 2026-04-29 20:40 | 56.82718 | 52.19756 | 36109 ft | 423 kts | 265° |
| 2026-04-29 20:40 | 56.82759 | 52.08994 | 36112 ft | 424 kts | 268° |
| 2026-04-29 20:41 | 56.82978 | 51.98241 | 36105 ft | 423 kts | 268° |
| 2026-04-29 20:41 | 56.83164 | 51.87505 | 36101 ft | 423 kts | 268° |
| 2026-04-29 20:42 | 56.83314 | 51.76790 | 36100 ft | 422 kts | 268° |
| 2026-04-29 20:42 | 56.83451 | 51.66071 | 36101 ft | 422 kts | 268° |
| 2026-04-29 20:43 | 56.83580 | 51.55344 | 36103 ft | 422 kts | 268° |
| 2026-04-29 20:43 | 56.83350 | 51.44659 | 36107 ft | 420 kts | 263° |
| 2026-04-29 20:44 | 56.82906 | 51.34013 | 36104 ft | 421 kts | 263° |
| 2026-04-29 20:44 | 56.82456 | 51.23331 | 36101 ft | 422 kts | 263° |
| 2026-04-29 20:45 | 56.82021 | 51.12625 | 36103 ft | 423 kts | 263° |
| 2026-04-29 20:45 | 56.81587 | 51.01906 | 36103 ft | 424 kts | 263° |
| 2026-04-29 20:46 | 56.81148 | 50.91243 | 36104 ft | 424 kts | 263° |
| 2026-04-29 20:46 | 56.80692 | 50.80483 | 36101 ft | 426 kts | 263° |
| 2026-04-29 20:47 | 56.80228 | 50.69707 | 36111 ft | 426 kts | 263° |
| 2026-04-29 20:47 | 56.79752 | 50.58936 | 36113 ft | 427 kts | 262° |
| 2026-04-29 20:48 | 56.79267 | 50.48138 | 36102 ft | 427 kts | 262° |
| 2026-04-29 20:48 | 56.78772 | 50.37339 | 36102 ft | 427 kts | 262° |
| 2026-04-29 20:49 | 56.78271 | 50.26556 | 36101 ft | 426 kts | 262° |
| 2026-04-29 20:49 | 56.77760 | 50.15797 | 36102 ft | 426 kts | 262° |
| 2026-04-29 20:50 | 56.77239 | 50.05025 | 36098 ft | 426 kts | 262° |
| 2026-04-29 20:50 | 56.76711 | 49.94296 | 36098 ft | 425 kts | 262° |
| 2026-04-29 20:51 | 56.76179 | 49.83628 | 36101 ft | 425 kts | 262° |
| 2026-04-29 20:51 | 56.75776 | 49.72868 | 36102 ft | 426 kts | 264° |
| 2026-04-29 20:52 | 56.75542 | 49.62171 | 36105 ft | 427 kts | 265° |
| 2026-04-29 20:52 | 56.75288 | 49.51368 | 36100 ft | 427 kts | 264° |
| 2026-04-29 20:53 | 56.75001 | 49.40551 | 36104 ft | 428 kts | 264° |
| 2026-04-29 20:53 | 56.74693 | 49.29726 | 36103 ft | 428 kts | 264° |
| 2026-04-29 20:54 | 56.74208 | 49.13410 | 36100 ft | 430 kts | 264° |
| 2026-04-29 20:55 | 56.73874 | 49.02517 | 36095 ft | 431 kts | 264° |
| 2026-04-29 20:55 | 56.73530 | 48.91606 | 36095 ft | 432 kts | 264° |
| 2026-04-29 20:56 | 56.73175 | 48.80672 | 36086 ft | 432 kts | 264° |
| 2026-04-29 20:56 | 56.72812 | 48.69730 | 36082 ft | 433 kts | 264° |
| 2026-04-29 20:57 | 56.72442 | 48.58853 | 36081 ft | 433 kts | 264° |
| 2026-04-29 20:57 | 56.72057 | 48.47898 | 36088 ft | 433 kts | 264° |
| 2026-04-29 20:58 | 56.71664 | 48.36958 | 36082 ft | 433 kts | 264° |
| 2026-04-29 20:58 | 56.71262 | 48.26024 | 36085 ft | 432 kts | 264° |
| 2026-04-29 20:59 | 56.70853 | 48.15115 | 36082 ft | 432 kts | 264° |
| 2026-04-29 20:59 | 56.70434 | 48.04219 | 36083 ft | 432 kts | 263° |
| 2026-04-29 21:00 | 56.70007 | 47.93309 | 36076 ft | 432 kts | 263° |
| 2026-04-29 21:00 | 56.69569 | 47.82404 | 36086 ft | 432 kts | 263° |
| 2026-04-29 21:01 | 56.69121 | 47.71495 | 36083 ft | 432 kts | 263° |
| 2026-04-29 21:01 | 56.68663 | 47.60576 | 36081 ft | 433 kts | 263° |
| 2026-04-29 21:02 | 56.68197 | 47.49667 | 36086 ft | 433 kts | 263° |
| 2026-04-29 21:02 | 56.67720 | 47.38725 | 36085 ft | 434 kts | 263° |
| 2026-04-29 21:03 | 56.66990 | 47.27850 | 36076 ft | 433 kts | 254° |
| 2026-04-29 21:03 | 56.65020 | 47.17547 | 36077 ft | 432 kts | 248° |
| 2026-04-29 21:04 | 56.62912 | 47.07316 | 36075 ft | 433 kts | 249° |
| 2026-04-29 21:04 | 56.60828 | 46.97071 | 36071 ft | 433 kts | 249° |
| 2026-04-29 21:05 | 56.58747 | 46.86794 | 36076 ft | 433 kts | 249° |
| 2026-04-29 21:05 | 56.56660 | 46.76533 | 36073 ft | 434 kts | 249° |
| 2026-04-29 21:06 | 56.54560 | 46.66260 | 36074 ft | 434 kts | 249° |
| 2026-04-29 21:06 | 56.52805 | 46.57731 | 36074 ft | 435 kts | 248° |
| 2026-04-29 21:07 | 56.50327 | 46.45748 | 36076 ft | 435 kts | 248° |
| 2026-04-29 21:07 | 56.48559 | 46.37240 | 36077 ft | 434 kts | 248° |
| 2026-04-29 21:08 | 56.46425 | 46.27010 | 36081 ft | 434 kts | 248° |
| 2026-04-29 21:08 | 56.44285 | 46.16795 | 36091 ft | 433 kts | 248° |
| 2026-04-29 21:09 | 56.42143 | 46.06627 | 36078 ft | 432 kts | 248° |
| 2026-04-29 21:09 | 56.40001 | 45.96508 | 36082 ft | 431 kts | 248° |
| 2026-04-29 21:10 | 56.37857 | 45.86430 | 36085 ft | 429 kts | 248° |
| 2026-04-29 21:10 | 56.35709 | 45.76385 | 36081 ft | 428 kts | 248° |
| 2026-04-29 21:11 | 56.33558 | 45.66377 | 36084 ft | 428 kts | 248° |
| 2026-04-29 21:11 | 56.31407 | 45.56409 | 36086 ft | 427 kts | 248° |
| 2026-04-29 21:12 | 56.29248 | 45.46451 | 36090 ft | 427 kts | 248° |
| 2026-04-29 21:12 | 56.27080 | 45.36499 | 36092 ft | 428 kts | 247° |
| 2026-04-29 21:13 | 56.24894 | 45.26532 | 36095 ft | 429 kts | 247° |
| 2026-04-29 21:13 | 56.22689 | 45.16545 | 36096 ft | 431 kts | 247° |
| 2026-04-29 21:14 | 56.20470 | 45.06527 | 36102 ft | 432 kts | 247° |
| 2026-04-29 21:14 | 56.18236 | 44.96488 | 36105 ft | 434 kts | 247° |
| 2026-04-29 21:15 | 56.15982 | 44.86401 | 36105 ft | 436 kts | 247° |
| 2026-04-29 21:15 | 56.13716 | 44.76301 | 36101 ft | 438 kts | 247° |
| 2026-04-29 21:16 | 56.11537 | 44.66086 | 36096 ft | 439 kts | 253° |
| 2026-04-29 21:16 | 56.10602 | 44.55329 | 36107 ft | 442 kts | 262° |
| 2026-04-29 21:17 | 56.10005 | 44.44371 | 36103 ft | 442 kts | 262° |
| 2026-04-29 21:17 | 56.09369 | 44.33359 | 36099 ft | 441 kts | 262° |
| 2026-04-29 21:18 | 56.08711 | 44.22541 | 36103 ft | 440 kts | 262° |
| 2026-04-29 21:18 | 56.08032 | 44.11661 | 36104 ft | 439 kts | 262° |
| 2026-04-29 21:19 | 56.07341 | 44.00731 | 36097 ft | 439 kts | 262° |
| 2026-04-29 21:19 | 56.06646 | 43.89878 | 36102 ft | 438 kts | 261° |
| 2026-04-29 21:20 | 56.05943 | 43.79071 | 36100 ft | 437 kts | 261° |
| 2026-04-29 21:20 | 56.05233 | 43.68276 | 36099 ft | 437 kts | 261° |
| 2026-04-29 21:21 | 56.04513 | 43.57498 | 36100 ft | 436 kts | 261° |
| 2026-04-29 21:21 | 56.03787 | 43.46736 | 36103 ft | 436 kts | 261° |
| 2026-04-29 21:22 | 56.03052 | 43.35972 | 36103 ft | 437 kts | 262° |
| 2026-04-29 21:22 | 56.02963 | 43.25081 | 36105 ft | 440 kts | 270° |
| 2026-04-29 21:23 | 56.03185 | 43.14123 | 36106 ft | 441 kts | 270° |
| 2026-04-29 21:23 | 56.03378 | 43.03139 | 36103 ft | 443 kts | 270° |